Champion — WCZ7631 — position and weather

sailwx.info

Track history (hours):
 
Tides and Currents Weather Stations Pressure Air Temp Water Temp Dewpoint Dewpoint Depression Visibility Wind Speed Wind Dir Waves Ship Positions

Champion

Owner: MC CULLEY MARINE SERVICES INC, FORT PIERCE, FL. More information available from US FCC via Universal Licensing System and Coast Guard Vessel Documentation Center.

Last reported at 2017-Jan-20 09:26 UTC. Time now 2017-Jan-20 09:46 UTC.
Position N 26°15' W 079°44'.

Length 20 m; draft 1.7 m.

Type: Towing. MMSI: 367005250.

Date/timePositionNaut miles runAvg speedWind from/ knotsBaromVisibWave heightAir tempDewpointWater temp
2017-Jan-20 09:26N 26°15' W 079°44'6 6.3
2017-Jan-20 08:33N 26°10' W 079°42'6 6.3
2017-Jan-20 07:33N 26°04' W 079°41'13 0.3
2017-Jan-18 08:27N 25°51' W 079°38'3 3.8
2017-Jan-18 07:33N 25°52' W 079°42'4 3.8
2017-Jan-18 06:33N 25°52' W 079°46'4 3.8
2017-Jan-18 05:33N 25°52' W 079°50'4 3.7
2017-Jan-18 04:33N 25°52' W 079°54'4 3.9
2017-Jan-18 03:33N 25°52' W 079°59'4 4.1
2017-Jan-18 02:33N 25°51' W 080°03'5 4.6
2017-Jan-18 01:33N 25°55' W 080°06'6 5.6
2017-Jan-18 00:33N 26°01' W 080°06'5 5.2
2017-Jan-17 23:33N 26°06' W 080°05'5 4.9
2017-Jan-17 22:33N 26°11' W 080°04'5 4.7
2017-Jan-17 21:33N 26°16' W 080°04'5 4.7
2017-Jan-17 20:33N 26°20' W 080°03'4 4.3
2017-Jan-17 19:33N 26°25' W 080°03'24 3.4
2017-Jan-17 12:26N 26°49' W 080°01'3 3.5
2017-Jan-17 11:33N 26°52' W 080°02'4 3.6
2017-Jan-17 10:33N 26°55' W 080°03'4 3.6
2017-Jan-17 09:33N 26°59' W 080°04'4 3.8
2017-Jan-17 08:29N 27°03' W 080°06'  
2017-Jan-13 10:32N 25°51' W 079°36'3 2.7
2017-Jan-13 09:33N 25°51' W 079°39'3 2.6
2017-Jan-13 08:33N 25°52' W 079°42'2 2.3
2017-Jan-13 07:33N 25°53' W 079°44'2 2.4
2017-Jan-13 06:33N 25°53' W 079°47'3 2.5
2017-Jan-13 05:33N 25°53' W 079°49'3 2.7
2017-Jan-13 04:33N 25°52' W 079°52'3 3.0
2017-Jan-13 03:33N 25°52' W 079°56'3 3.2
2017-Jan-13 02:33N 25°53' W 079°59'4 3.6
2017-Jan-13 01:33N 25°55' W 080°03'4 4.2
2017-Jan-13 00:33N 25°58' W 080°06'5 5.0
2017-Jan-12 23:33N 26°03' W 080°05'6 5.8
2017-Jan-12 22:33N 26°09' W 080°05'5 4.9
2017-Jan-12 21:33N 26°14' W 080°04'4 4.0
2017-Jan-12 20:33N 26°18' W 080°03'3 3.3
2017-Jan-12 19:33N 26°21' W 080°03'3 2.9
2017-Jan-12 18:33N 26°24' W 080°03'26 2.9
2017-Jan-12 09:33N 26°50' W 080°02'3 3.2
2017-Jan-12 08:33N 26°53' W 080°02'3 3.3
2017-Jan-12 07:33N 26°56' W 080°03'3 3.2
2017-Jan-12 06:33N 26°59' W 080°04'3 3.2
2017-Jan-12 05:33N 27°02' W 080°05'  
Track history (hours):
 
Tides and Currents Weather Stations Pressure Air Temp Water Temp Dewpoint Dewpoint Depression Visibility Wind Speed Wind Dir Waves Ship Positions

Champion

Owner: MC CULLEY MARINE SERVICES INC, FORT PIERCE, FL. More information available from US FCC via Universal Licensing System and Coast Guard Vessel Documentation Center.

Last reported at 2017-Jan-20 09:26 UTC. Time now 2017-Jan-20 09:46 UTC.
Position N 26°15' W 079°44'.

Length 20 m; draft 1.7 m.

Type: Towing. MMSI: 367005250.

Date/timePositionNaut miles runAvg speedWind from/ knotsBaromVisibWave heightAir tempDewpointWater temp
2017-Jan-20 09:26N 26°15' W 079°44'6 6.3
2017-Jan-20 08:33N 26°10' W 079°42'6 6.3
2017-Jan-20 07:33N 26°04' W 079°41'13 0.3
2017-Jan-18 08:27N 25°51' W 079°38'3 3.8
2017-Jan-18 07:33N 25°52' W 079°42'4 3.8
2017-Jan-18 06:33N 25°52' W 079°46'4 3.8
2017-Jan-18 05:33N 25°52' W 079°50'4 3.7
2017-Jan-18 04:33N 25°52' W 079°54'4 3.9
2017-Jan-18 03:33N 25°52' W 079°59'4 4.1
2017-Jan-18 02:33N 25°51' W 080°03'5 4.6
2017-Jan-18 01:33N 25°55' W 080°06'6 5.6
2017-Jan-18 00:33N 26°01' W 080°06'5 5.2
2017-Jan-17 23:33N 26°06' W 080°05'5 4.9
2017-Jan-17 22:33N 26°11' W 080°04'5 4.7
2017-Jan-17 21:33N 26°16' W 080°04'5 4.7
2017-Jan-17 20:33N 26°20' W 080°03'4 4.3
2017-Jan-17 19:33N 26°25' W 080°03'24 3.4
2017-Jan-17 12:26N 26°49' W 080°01'3 3.5
2017-Jan-17 11:33N 26°52' W 080°02'4 3.6
2017-Jan-17 10:33N 26°55' W 080°03'4 3.6
2017-Jan-17 09:33N 26°59' W 080°04'4 3.8
2017-Jan-17 08:29N 27°03' W 080°06'  
2017-Jan-13 10:32N 25°51' W 079°36'3 2.7
2017-Jan-13 09:33N 25°51' W 079°39'3 2.6
2017-Jan-13 08:33N 25°52' W 079°42'2 2.3
2017-Jan-13 07:33N 25°53' W 079°44'2 2.4
2017-Jan-13 06:33N 25°53' W 079°47'3 2.5
2017-Jan-13 05:33N 25°53' W 079°49'3 2.7
2017-Jan-13 04:33N 25°52' W 079°52'3 3.0
2017-Jan-13 03:33N 25°52' W 079°56'3 3.2
2017-Jan-13 02:33N 25°53' W 079°59'4 3.6
2017-Jan-13 01:33N 25°55' W 080°03'4 4.2
2017-Jan-13 00:33N 25°58' W 080°06'5 5.0
2017-Jan-12 23:33N 26°03' W 080°05'6 5.8
2017-Jan-12 22:33N 26°09' W 080°05'5 4.9
2017-Jan-12 21:33N 26°14' W 080°04'4 4.0
2017-Jan-12 20:33N 26°18' W 080°03'3 3.3
2017-Jan-12 19:33N 26°21' W 080°03'3 2.9
2017-Jan-12 18:33N 26°24' W 080°03'26 2.9
2017-Jan-12 09:33N 26°50' W 080°02'3 3.2
2017-Jan-12 08:33N 26°53' W 080°02'3 3.3
2017-Jan-12 07:33N 26°56' W 080°03'3 3.2
2017-Jan-12 06:33N 26°59' W 080°04'3 3.2
2017-Jan-12 05:33N 27°02' W 080°05'  

Dump ship's entire track history